createdAt,value
2022-09-14T00:01:32.718Z,62.75
2022-09-14T00:04:12.840Z,62.94
2022-09-14T00:06:40.711Z,63.22
2022-09-14T00:09:11.406Z,63.47
2022-09-14T00:11:38.150Z,63.81
2022-09-14T00:14:06.664Z,64.07
2022-09-14T00:16:39.520Z,64.24
2022-09-14T00:19:20.363Z,64.31
2022-09-14T00:21:55.992Z,64.41
2022-09-14T00:24:24.753Z,64.47
2022-09-14T00:26:51.832Z,64.47
2022-09-14T00:29:19.206Z,64.46
2022-09-14T00:31:45.880Z,64.50
2022-09-14T00:34:16.223Z,64.52
2022-09-14T00:36:49.680Z,64.53
2022-09-14T00:39:18.675Z,64.64
2022-09-14T00:41:48.597Z,64.70
2022-09-14T00:44:15.055Z,64.76
2022-09-14T00:46:48.392Z,64.83
2022-09-14T00:49:27.509Z,64.92
2022-09-14T00:52:10.424Z,64.87
2022-09-14T00:54:42.735Z,64.91
2022-09-14T00:57:09.728Z,65.06
2022-09-14T00:59:40.086Z,65.35
2022-09-14T01:02:10.347Z,65.40
2022-09-14T01:04:37.776Z,65.60
2022-09-14T01:07:43.155Z,65.58
2022-09-14T01:10:24.764Z,65.75
2022-09-14T01:13:19.172Z,65.78
2022-09-14T01:16:02.874Z,65.93
2022-09-14T01:18:37.732Z,66.01
2022-09-14T01:21:11.288Z,66.09
2022-09-14T01:23:47.660Z,66.16
2022-09-14T01:26:38.024Z,66.24
2022-09-14T01:29:55.030Z,66.37
2022-09-14T01:32:30.781Z,66.41
2022-09-14T01:35:07.972Z,66.45
2022-09-14T01:37:46.082Z,66.48
2022-09-14T01:40:33.183Z,66.63
2022-09-14T01:43:25.523Z,66.74
2022-09-14T01:45:58.005Z,66.85
2022-09-14T01:48:32.603Z,66.99
2022-09-14T01:51:04.064Z,67.13
2022-09-14T01:53:38.868Z,67.26
2022-09-14T01:56:10.961Z,67.42
2022-09-14T01:58:48.619Z,67.48
2022-09-14T02:01:23.043Z,67.56
2022-09-14T02:03:59.521Z,67.53
2022-09-14T02:06:36.326Z,67.47
2022-09-14T02:09:06.257Z,67.49
2022-09-14T02:11:32.916Z,67.48
2022-09-14T02:13:59.550Z,67.58
2022-09-14T02:16:26.638Z,67.66
2022-09-14T02:18:53.680Z,67.65
2022-09-14T02:21:28.677Z,67.63
2022-09-14T02:23:56.528Z,67.59
2022-09-14T02:26:23.692Z,67.64
2022-09-14T02:28:55.831Z,67.66
2022-09-14T02:32:02.619Z,67.78
2022-09-14T02:34:45.543Z,67.85
2022-09-14T02:37:22.379Z,67.84
2022-09-14T02:40:14.746Z,67.82
2022-09-14T02:43:03.603Z,67.79
2022-09-14T02:46:00.203Z,67.87
2022-09-14T02:48:42.247Z,67.90
2022-09-14T02:51:40.789Z,67.99
2022-09-14T02:54:18.194Z,68.09
2022-09-14T02:56:45.384Z,68.18
2022-09-14T02:59:12.421Z,68.15
2022-09-14T03:01:39.489Z,68.09
2022-09-14T03:04:06.300Z,68.10
2022-09-14T03:06:32.928Z,68.14
2022-09-14T03:08:59.965Z,68.19
2022-09-14T03:11:26.525Z,68.22
2022-09-14T03:13:53.106Z,68.29
2022-09-14T03:16:19.914Z,68.38
2022-09-14T03:18:46.533Z,68.37
2022-09-14T03:21:16.629Z,68.39
2022-09-14T03:23:52.591Z,68.41
2022-09-14T03:26:22.119Z,68.50
2022-09-14T03:29:01.785Z,68.48
2022-09-14T03:31:28.443Z,68.54
2022-09-14T03:33:58.469Z,68.58
2022-09-14T03:36:28.720Z,68.57
2022-09-14T03:38:58.136Z,68.59
2022-09-14T03:41:25.518Z,68.62
2022-09-14T03:43:52.267Z,68.61
2022-09-14T03:46:23.012Z,68.67
2022-09-14T03:48:50.395Z,68.67
2022-09-14T03:51:18.071Z,68.70
2022-09-14T03:53:45.326Z,68.76
2022-09-14T03:56:19.245Z,68.85
2022-09-14T03:58:47.515Z,68.90
2022-09-14T04:01:19.234Z,68.90
2022-09-14T04:03:46.609Z,68.90
2022-09-14T04:06:16.026Z,68.98
2022-09-14T04:08:44.360Z,68.98
2022-09-14T04:11:19.038Z,68.90
2022-09-14T04:13:47.093Z,68.82
2022-09-14T04:16:15.452Z,68.82
2022-09-14T04:18:42.386Z,68.79
2022-09-14T04:21:18.724Z,68.71
2022-09-14T04:26:33.657Z,68.56
2022-09-14T04:29:00.411Z,68.53
2022-09-14T04:31:27.133Z,68.54
2022-09-14T04:33:57.117Z,68.59
2022-09-14T04:36:31.041Z,68.58
2022-09-14T04:39:01.592Z,68.43
2022-09-14T04:41:30.476Z,68.32
2022-09-14T04:43:59.003Z,68.34
2022-09-14T04:46:32.098Z,68.30
2022-09-14T04:48:58.981Z,68.31
2022-09-14T04:51:30.403Z,68.43
2022-09-14T04:53:59.604Z,68.74
2022-09-14T04:56:29.481Z,68.73
2022-09-14T04:58:59.599Z,68.72
2022-09-14T05:01:29.995Z,68.68
2022-09-14T05:03:57.245Z,68.63
2022-09-14T05:06:28.170Z,68.60
2022-09-14T05:08:56.759Z,68.59
2022-09-14T05:11:29.779Z,68.51
2022-09-14T05:13:58.878Z,68.59
2022-09-14T05:16:35.266Z,68.51
2022-09-14T05:19:05.930Z,68.49
2022-09-14T05:21:35.516Z,68.33
2022-09-14T05:24:08.081Z,68.12
2022-09-14T05:26:34.690Z,68.12
2022-09-14T05:29:02.422Z,68.18
2022-09-14T05:31:32.101Z,68.17
2022-09-14T05:33:59.362Z,68.24
2022-09-14T05:36:26.403Z,68.29
2022-09-14T05:38:52.982Z,68.30
2022-09-14T05:41:19.769Z,68.24
2022-09-14T05:43:46.484Z,68.20
2022-09-14T05:46:17.097Z,68.03
2022-09-14T05:48:44.267Z,67.93
2022-09-14T05:51:15.864Z,67.89
2022-09-14T05:53:50.739Z,67.88
2022-09-14T05:56:19.218Z,67.94
2022-09-14T05:58:46.699Z,67.76
2022-09-14T06:01:33.080Z,67.75
2022-09-14T06:04:04.613Z,67.34
2022-09-14T06:06:33.157Z,67.19
2022-09-14T06:09:00.228Z,67.21
2022-09-14T06:11:31.325Z,67.12
2022-09-14T06:13:58.063Z,67.08
2022-09-14T06:16:27.469Z,67.14
2022-09-14T06:18:56.792Z,67.47
2022-09-14T06:21:24.017Z,67.58
2022-09-14T06:23:51.938Z,68.13
2022-09-14T06:26:18.544Z,68.19
2022-09-14T06:28:45.281Z,67.92
2022-09-14T06:31:15.187Z,67.73
2022-09-14T06:33:46.585Z,67.53
2022-09-14T06:36:21.054Z,67.51
2022-09-14T06:38:49.877Z,67.55
2022-09-14T06:41:21.763Z,67.56
2022-09-14T06:43:49.275Z,67.65
2022-09-14T06:46:20.963Z,67.29
2022-09-14T06:49:00.596Z,67.23
2022-09-14T06:51:35.434Z,67.22
2022-09-14T06:54:04.125Z,67.70
2022-09-14T06:56:39.916Z,68.08
2022-09-14T06:59:09.346Z,68.17
2022-09-14T07:01:37.501Z,68.18
2022-09-14T07:04:05.790Z,68.25
2022-09-14T07:06:46.148Z,68.25
2022-09-14T07:09:13.771Z,68.15
2022-09-14T07:11:42.092Z,68.26
2022-09-14T07:14:09.768Z,68.24
2022-09-14T07:16:39.070Z,68.26
2022-09-14T07:19:11.533Z,68.36
2022-09-14T07:21:39.191Z,68.31
2022-09-14T07:24:05.879Z,68.30
2022-09-14T07:26:45.300Z,68.39
2022-09-14T07:29:16.962Z,68.40
2022-09-14T07:31:48.626Z,68.27
2022-09-14T07:34:16.219Z,68.38
2022-09-14T07:36:43.377Z,68.24
2022-09-14T07:39:13.983Z,68.21
2022-09-14T07:41:40.818Z,67.97
2022-09-14T07:44:08.854Z,68.03
2022-09-14T07:46:43.334Z,67.70
2022-09-14T07:49:11.405Z,67.56
2022-09-14T07:51:38.666Z,67.03
2022-09-14T07:54:08.404Z,66.52
2022-09-14T07:56:35.439Z,65.67
2022-09-14T07:59:30.787Z,64.94
2022-09-14T08:01:50.636Z,63.77
2022-09-14T08:04:17.535Z,62.77
2022-09-14T08:06:45.027Z,62.12
2022-09-14T08:09:11.645Z,61.62
2022-09-14T08:11:39.016Z,60.97
2022-09-14T08:14:11.554Z,59.19
2022-09-14T08:16:40.531Z,59.02
2022-09-14T08:19:17.364Z,58.29
2022-09-14T08:21:47.163Z,57.62
2022-09-14T08:24:18.840Z,57.13
2022-09-14T08:26:46.579Z,56.73
2022-09-14T08:29:18.096Z,56.25
2022-09-14T08:31:46.318Z,55.87
2022-09-14T08:34:14.819Z,54.98
2022-09-14T08:36:43.564Z,54.82
2022-09-14T08:39:13.353Z,54.69
2022-09-14T08:41:46.158Z,53.80
2022-09-14T08:44:43.756Z,52.70
2022-09-14T08:47:26.155Z,51.45
2022-09-14T08:50:06.351Z,49.63
2022-09-14T08:52:53.029Z,48.52
2022-09-14T08:55:43.044Z,47.10
2022-09-14T08:58:48.131Z,45.90
2022-09-14T09:01:40.275Z,44.43
2022-09-14T09:04:25.574Z,44.11
2022-09-14T09:07:18.508Z,43.17
2022-09-14T09:09:53.022Z,42.38
2022-09-14T09:12:34.929Z,42.05
2022-09-14T09:15:21.929Z,41.50
2022-09-14T09:17:53.979Z,40.47
2022-09-14T09:20:27.467Z,39.37
2022-09-14T09:23:13.472Z,39.52
2022-09-14T09:26:01.243Z,39.34
2022-09-14T09:28:29.759Z,39.46
2022-09-14T09:31:09.180Z,39.24
2022-09-14T09:33:52.207Z,39.81
2022-09-14T09:36:21.651Z,40.09
2022-09-14T09:38:48.244Z,39.99
2022-09-14T09:41:21.974Z,40.54
2022-09-14T09:44:06.734Z,40.40
2022-09-14T09:46:36.421Z,40.65
2022-09-14T09:49:29.266Z,40.96
2022-09-14T09:51:56.551Z,41.28
2022-09-14T09:54:28.774Z,41.46
2022-09-14T09:56:58.252Z,41.12
2022-09-14T09:59:36.545Z,40.89
2022-09-14T10:02:32.860Z,40.94
2022-09-14T10:05:19.203Z,41.48
2022-09-14T10:07:48.957Z,41.43
2022-09-14T10:10:19.548Z,41.23
2022-09-14T10:12:54.507Z,41.53
2022-09-14T10:15:33.618Z,41.81
2022-09-14T10:18:12.378Z,42.20
2022-09-14T10:20:43.820Z,42.19
2022-09-14T10:23:21.903Z,42.55
2022-09-14T10:25:52.809Z,42.55
2022-09-14T10:28:33.945Z,42.51
2022-09-14T10:31:16.836Z,42.95
2022-09-14T10:33:46.452Z,43.16
2022-09-14T10:36:50.474Z,43.39
2022-09-14T10:39:40.912Z,43.64
2022-09-14T10:42:34.950Z,43.96
2022-09-14T10:45:25.894Z,44.09
2022-09-14T10:48:02.599Z,43.93
2022-09-14T10:50:51.535Z,43.67
2022-09-14T10:53:31.605Z,43.48
2022-09-14T10:56:21.493Z,43.48
2022-09-14T10:59:29.745Z,43.85
2022-09-14T11:02:46.639Z,43.82
2022-09-14T11:05:40.305Z,43.79
2022-09-14T11:08:33.520Z,43.78
2022-09-14T11:11:31.071Z,43.47
2022-09-14T11:14:07.901Z,43.51
2022-09-14T11:17:19.928Z,43.56
2022-09-14T11:20:04.909Z,43.64
2022-09-14T11:23:16.108Z,43.50
2022-09-14T11:26:09.397Z,43.50
2022-09-14T11:28:46.740Z,43.01
2022-09-14T11:31:29.328Z,43.28
2022-09-14T11:34:21.808Z,43.29
2022-09-14T11:37:01.669Z,43.20
2022-09-14T11:39:38.093Z,43.11
2022-09-14T11:42:21.112Z,43.25
2022-09-14T11:44:59.642Z,43.80
2022-09-14T11:47:27.120Z,44.03
2022-09-14T11:50:25.857Z,43.98
2022-09-14T11:53:24.323Z,44.26
2022-09-14T11:55:51.794Z,43.97
2022-09-14T11:58:23.855Z,44.19
2022-09-14T12:01:31.858Z,44.18
2022-09-14T12:04:01.126Z,44.17
2022-09-14T12:06:30.450Z,44.25
2022-09-14T12:09:21.168Z,44.43
2022-09-14T12:11:50.200Z,44.49
2022-09-14T12:14:32.930Z,44.48
2022-09-14T12:17:39.274Z,44.53
2022-09-14T12:20:30.482Z,44.66
2022-09-14T12:23:30.399Z,44.33
2022-09-14T12:26:05.998Z,43.93
2022-09-14T12:28:35.493Z,43.77
2022-09-14T12:31:05.037Z,43.54
2022-09-14T12:33:34.237Z,43.31
2022-09-14T12:36:12.302Z,43.39
2022-09-14T12:38:52.134Z,43.45
2022-09-14T12:41:18.676Z,43.13
2022-09-14T12:43:45.913Z,43.32
2022-09-14T12:46:21.763Z,43.35
2022-09-14T12:48:48.594Z,43.33
2022-09-14T12:51:36.783Z,43.24
2022-09-14T12:54:09.367Z,43.48
2022-09-14T12:57:22.783Z,43.50
2022-09-14T13:00:16.980Z,43.57
2022-09-14T13:02:52.695Z,43.50
2022-09-14T13:05:24.853Z,43.81
2022-09-14T13:07:54.952Z,44.13
2022-09-14T13:10:35.075Z,44.57
2022-09-14T13:13:08.709Z,45.06
2022-09-14T13:15:51.082Z,45.48
2022-09-14T13:18:17.658Z,46.09
2022-09-14T13:20:53.876Z,46.46
2022-09-14T13:23:31.211Z,46.57
2022-09-14T13:25:58.839Z,46.64
2022-09-14T13:28:30.693Z,46.76
2022-09-14T13:31:01.294Z,46.93
2022-09-14T13:33:29.962Z,46.99
2022-09-14T13:36:02.870Z,46.77
2022-09-14T13:38:36.755Z,46.56
2022-09-14T13:41:10.883Z,46.46
2022-09-14T13:43:38.236Z,46.45
2022-09-14T13:46:08.075Z,46.31
2022-09-14T13:48:40.218Z,46.23
2022-09-14T13:51:09.763Z,46.11
2022-09-14T13:53:42.405Z,45.92
2022-09-14T13:56:32.370Z,45.81
2022-09-14T13:59:21.535Z,45.58
2022-09-14T14:01:59.174Z,45.44
2022-09-14T14:04:37.517Z,45.29
2022-09-14T14:07:13.700Z,45.45
2022-09-14T14:09:47.457Z,45.74
2022-09-14T14:12:23.631Z,45.91
2022-09-14T14:14:59.988Z,46.15
2022-09-14T14:17:29.511Z,46.40
2022-09-14T14:20:00.175Z,46.41
2022-09-14T14:22:34.198Z,46.20
2022-09-14T14:25:18.667Z,46.15
2022-09-14T14:27:48.064Z,46.25
2022-09-14T14:30:21.323Z,46.43
2022-09-14T14:32:52.532Z,46.70
2022-09-14T14:35:29.050Z,47.00
2022-09-14T14:37:56.977Z,47.34
2022-09-14T14:40:27.311Z,47.49
2022-09-14T14:42:55.102Z,47.54
2022-09-14T14:45:26.386Z,47.63
2022-09-14T14:47:55.321Z,47.79
2022-09-14T14:50:29.469Z,48.08
2022-09-14T14:52:57.357Z,48.22
2022-09-14T14:55:27.394Z,48.13
2022-09-14T14:57:58.225Z,48.20
2022-09-14T15:00:25.485Z,48.21
2022-09-14T15:02:52.094Z,48.26
2022-09-14T15:05:19.731Z,48.30
2022-09-14T15:07:47.646Z,48.41
2022-09-14T15:10:16.755Z,48.41
2022-09-14T15:12:44.333Z,48.44
2022-09-14T15:15:23.220Z,48.58
2022-09-14T15:17:50.907Z,48.62
2022-09-14T15:20:20.008Z,48.79
2022-09-14T15:22:48.307Z,50.33
2022-09-14T15:25:17.096Z,51.17
2022-09-14T15:27:43.789Z,51.68
2022-09-14T15:30:12.004Z,52.52
2022-09-14T15:32:39.468Z,53.37
2022-09-14T15:35:09.839Z,53.47
2022-09-14T15:37:36.588Z,53.90
2022-09-14T15:40:04.621Z,54.36
2022-09-14T15:42:31.379Z,55.13
2022-09-14T15:44:58.003Z,55.69
2022-09-14T15:47:24.689Z,55.70
2022-09-14T15:49:52.857Z,56.41
2022-09-14T15:52:20.040Z,59.59
2022-09-14T15:54:46.972Z,61.58
2022-09-14T15:57:13.665Z,61.87
2022-09-14T15:59:40.348Z,63.03
2022-09-14T16:02:07.999Z,63.48
2022-09-14T16:04:37.149Z,64.34
2022-09-14T16:07:09.430Z,65.69
2022-09-14T16:09:38.756Z,65.62
2022-09-14T16:12:06.519Z,65.91
2022-09-14T16:14:33.587Z,66.42
2022-09-14T16:17:00.770Z,66.90
2022-09-14T16:19:28.031Z,66.78
2022-09-14T16:21:55.279Z,67.52
2022-09-14T16:24:24.260Z,67.56
2022-09-14T16:26:51.026Z,67.33
2022-09-14T16:29:20.339Z,67.30
2022-09-14T16:31:48.449Z,67.51
2022-09-14T16:34:37.061Z,67.70
2022-09-14T16:37:04.324Z,68.32
2022-09-14T16:39:31.644Z,68.79
2022-09-14T16:41:59.908Z,68.71
2022-09-14T16:44:28.314Z,68.87
2022-09-14T16:46:57.756Z,69.13
2022-09-14T16:49:27.854Z,69.32
2022-09-14T16:51:56.620Z,69.54
2022-09-14T16:54:25.731Z,69.74
2022-09-14T16:56:56.883Z,69.88
2022-09-14T16:59:23.893Z,69.86
2022-09-14T17:01:54.498Z,70.05
2022-09-14T17:04:23.573Z,70.21
2022-09-14T17:06:51.654Z,70.88
2022-09-14T17:09:29.146Z,71.28
2022-09-14T17:11:57.646Z,71.36
2022-09-14T17:14:28.540Z,71.51
2022-09-14T17:16:55.419Z,71.65
2022-09-14T17:19:22.317Z,71.83
2022-09-14T17:21:50.387Z,72.33
2022-09-14T17:24:18.865Z,72.48
2022-09-14T17:26:46.600Z,72.70
2022-09-14T17:29:14.161Z,72.65
2022-09-14T17:31:43.294Z,72.91
2022-09-14T17:34:13.429Z,73.26
2022-09-14T17:36:40.645Z,73.28
2022-09-14T17:39:12.044Z,73.21
2022-09-14T17:41:40.683Z,73.28
2022-09-14T17:44:10.881Z,73.19
2022-09-14T17:46:45.905Z,73.00
2022-09-14T17:49:16.051Z,72.91
2022-09-14T17:51:44.235Z,73.02
2022-09-14T17:54:12.749Z,73.19
2022-09-14T17:56:39.485Z,73.23
2022-09-14T17:59:11.023Z,73.05
2022-09-14T18:01:37.867Z,72.89
2022-09-14T18:04:09.155Z,73.32
2022-09-14T18:06:39.834Z,73.09
2022-09-14T18:09:16.675Z,72.92
2022-09-14T18:11:44.390Z,72.91
2022-09-14T18:14:14.019Z,73.31
2022-09-14T18:16:42.425Z,72.93
2022-09-14T18:19:09.760Z,72.89
2022-09-14T18:21:36.392Z,72.87
2022-09-14T18:24:03.683Z,72.57
2022-09-14T18:26:30.279Z,72.66
2022-09-14T18:28:58.530Z,72.66
2022-09-14T18:31:26.095Z,72.67
2022-09-14T18:33:57.765Z,72.71
2022-09-14T18:36:28.196Z,72.70
2022-09-14T18:38:55.734Z,72.65
2022-09-14T18:41:22.394Z,72.66
2022-09-14T18:43:51.881Z,72.72
2022-09-14T18:46:18.976Z,72.73
2022-09-14T18:48:46.656Z,72.49
2022-09-14T18:51:14.353Z,72.26
2022-09-14T18:53:41.615Z,72.37
2022-09-14T18:56:14.188Z,72.59
2022-09-14T18:58:44.477Z,72.82
2022-09-14T19:01:13.889Z,72.53
2022-09-14T19:03:42.557Z,72.53
2022-09-14T19:06:13.528Z,72.66
2022-09-14T19:08:40.683Z,72.27
2022-09-14T19:11:12.227Z,72.19
2022-09-14T19:13:39.569Z,72.18
2022-09-14T19:16:12.910Z,72.29
2022-09-14T19:18:40.928Z,72.69
2022-09-14T19:21:13.076Z,72.61
2022-09-14T19:23:39.922Z,72.48
2022-09-14T19:26:10.906Z,72.52
2022-09-14T19:28:37.788Z,72.46
2022-09-14T19:31:10.943Z,72.69
2022-09-14T19:33:42.029Z,72.76
2022-09-14T19:36:19.798Z,73.17
2022-09-14T19:38:48.585Z,73.25
2022-09-14T19:41:16.840Z,73.15
2022-09-14T19:43:43.982Z,73.20
2022-09-14T19:46:14.845Z,73.29
2022-09-14T19:48:42.724Z,73.54
2022-09-14T19:51:19.054Z,73.52
2022-09-14T19:53:48.732Z,73.56
2022-09-14T19:56:18.746Z,73.84
2022-09-14T19:58:49.426Z,73.97
2022-09-14T20:01:18.998Z,73.94
2022-09-14T20:03:47.335Z,74.18
2022-09-14T20:06:23.302Z,74.37
2022-09-14T20:08:56.652Z,74.52
2022-09-14T20:11:26.720Z,74.67
2022-09-14T20:13:55.465Z,74.80
2022-09-14T20:16:32.906Z,74.89
2022-09-14T20:19:06.220Z,74.90
2022-09-14T20:21:33.639Z,74.98
2022-09-14T20:24:17.698Z,74.96
2022-09-14T20:26:49.896Z,74.93
2022-09-14T20:29:18.828Z,74.99
2022-09-14T20:31:46.788Z,74.93
2022-09-14T20:34:16.353Z,75.00
2022-09-14T20:36:43.102Z,74.96
2022-09-14T20:39:10.349Z,74.91
2022-09-14T20:41:36.947Z,74.95
2022-09-14T20:44:04.533Z,74.91
2022-09-14T20:46:39.322Z,74.88
2022-09-14T20:49:11.826Z,74.63
2022-09-14T20:51:39.637Z,74.67
2022-09-14T20:54:08.645Z,74.67
2022-09-14T20:56:35.933Z,74.77
2022-09-14T20:59:07.242Z,74.84
2022-09-14T21:01:37.153Z,74.80
2022-09-14T21:04:14.117Z,74.66
2022-09-14T21:06:45.447Z,74.67
2022-09-14T21:09:13.776Z,74.63
2022-09-14T21:11:41.945Z,74.54
2022-09-14T21:14:08.674Z,74.51
2022-09-14T21:16:42.400Z,74.43
2022-09-14T21:19:22.135Z,74.51
2022-09-14T21:21:50.200Z,74.29
2022-09-14T21:24:19.567Z,74.30
2022-09-14T21:26:46.207Z,74.36
2022-09-14T21:29:17.498Z,74.45
2022-09-14T21:31:44.689Z,74.39
2022-09-14T21:34:12.593Z,74.29
2022-09-14T21:36:43.972Z,74.10
2022-09-14T21:39:22.946Z,73.99
2022-09-14T21:41:57.335Z,73.89
2022-09-14T21:44:32.062Z,73.79
2022-09-14T21:46:59.203Z,73.79
2022-09-14T21:49:25.876Z,73.88
2022-09-14T21:51:52.511Z,73.60
2022-09-14T21:54:20.328Z,73.56
2022-09-14T21:56:48.097Z,73.48
2022-09-14T21:59:19.975Z,73.32
2022-09-14T22:01:47.887Z,73.03
2022-09-14T22:04:18.486Z,72.90
2022-09-14T22:06:45.936Z,72.98
2022-09-14T22:09:18.665Z,72.91
2022-09-14T22:11:45.959Z,72.92
2022-09-14T22:14:20.100Z,72.96
2022-09-14T22:16:48.029Z,73.10
2022-09-14T22:19:26.145Z,73.25
2022-09-14T22:21:53.431Z,73.14
2022-09-14T22:24:37.417Z,73.26
2022-09-14T22:27:09.919Z,73.34
2022-09-14T22:29:40.934Z,73.14
2022-09-14T22:32:11.145Z,72.82
2022-09-14T22:34:39.581Z,72.70
2022-09-14T22:37:06.232Z,72.55
2022-09-14T22:39:33.170Z,72.52
2022-09-14T22:41:59.826Z,72.36
2022-09-14T22:44:26.541Z,72.36
2022-09-14T22:46:53.765Z,72.29
2022-09-14T22:49:20.358Z,72.35
2022-09-14T22:51:47.610Z,72.29
2022-09-14T22:54:14.272Z,72.20
2022-09-14T22:56:41.043Z,72.19
2022-09-14T22:59:09.823Z,72.15
2022-09-14T23:01:41.229Z,72.28
2022-09-14T23:04:12.696Z,72.59
2022-09-14T23:06:43.585Z,72.94
2022-09-14T23:09:14.797Z,73.17
2022-09-14T23:11:42.260Z,73.32
2022-09-14T23:14:08.908Z,73.57
2022-09-14T23:16:35.550Z,73.84
2022-09-14T23:19:06.649Z,73.88
2022-09-14T23:21:34.704Z,73.65
2022-09-14T23:24:05.092Z,73.74
2022-09-14T23:26:32.441Z,73.97
2022-09-14T23:29:09.237Z,73.89
2022-09-14T23:31:36.043Z,73.88
2022-09-14T23:34:04.973Z,73.54
2022-09-14T23:36:32.539Z,73.41
2022-09-14T23:38:59.128Z,73.32
2022-09-14T23:41:27.631Z,73.39
2022-09-14T23:43:54.625Z,73.40
2022-09-14T23:46:22.530Z,73.12
2022-09-14T23:48:49.971Z,73.23
2022-09-14T23:51:16.902Z,73.43
2022-09-14T23:53:43.811Z,73.41
2022-09-14T23:56:12.129Z,73.10
2022-09-14T23:58:41.838Z,73.07
